AAL1408 KMIA-KCLT
Flight info
| Callsign | AAL1408 |
|---|---|
| Flight time | 1h 32m |
| Altitude | 39000 |
| Route | ALTNN2 DUCEN Q87 VIYAP CHECR STOCR4 |
| Aircraft | B772/H-SDE2E3FGHIJ5LORVWXY/LB1D1 |
Departure
| Time | 2026-05-07 18:50 |
|---|---|
| Airport | Miami International Airport (KMIA) |
Arrival
| Time | 2026-05-07 20:22 |
|---|---|
| Airport | Charlotte Douglas International Airport (KCLT) |
| Time | Latitude | Longitude | Altitude | Speed | Heading |
|---|---|---|---|---|---|
| 2026-05-07 18:26 | 25.79779 | -80.28046 | 21 ft | 0 kts | 214° |
| 2026-05-07 18:41 | 25.79799 | -80.28029 | 25 ft | 4 kts | 225° |
| 2026-05-07 18:41 | 25.79815 | -80.28006 | 23 ft | 4 kts | 244° |
| 2026-05-07 18:42 | 25.79824 | -80.27978 | 25 ft | 4 kts | 264° |
| 2026-05-07 18:42 | 25.79825 | -80.27949 | 25 ft | 3 kts | 268° |
| 2026-05-07 18:42 | 25.79825 | -80.27945 | 25 ft | 0 kts | 267° |
| 2026-05-07 18:44 | 25.79835 | -80.28002 | 23 ft | 10 kts | 292° |
| 2026-05-07 18:44 | 25.79890 | -80.28075 | 18 ft | 14 kts | 319° |
| 2026-05-07 18:44 | 25.79973 | -80.28134 | 18 ft | 14 kts | 333° |
| 2026-05-07 18:44 | 25.80038 | -80.28186 | 19 ft | 11 kts | 292° |
| 2026-05-07 18:45 | 25.80037 | -80.28299 | 20 ft | 19 kts | 268° |
| 2026-05-07 18:45 | 25.80031 | -80.28447 | 19 ft | 19 kts | 266° |
| 2026-05-07 18:45 | 25.80028 | -80.28595 | 23 ft | 19 kts | 268° |
| 2026-05-07 18:45 | 25.80019 | -80.28743 | 27 ft | 19 kts | 266° |
| 2026-05-07 18:46 | 25.80011 | -80.28891 | 29 ft | 19 kts | 267° |
| 2026-05-07 18:46 | 25.80005 | -80.29039 | 29 ft | 19 kts | 267° |
| 2026-05-07 18:46 | 25.79998 | -80.29187 | 26 ft | 19 kts | 267° |
| 2026-05-07 18:46 | 25.79993 | -80.29335 | 23 ft | 19 kts | 268° |
| 2026-05-07 18:47 | 25.79988 | -80.29483 | 18 ft | 19 kts | 268° |
| 2026-05-07 18:47 | 25.79982 | -80.29631 | 18 ft | 19 kts | 268° |
| 2026-05-07 18:47 | 25.79976 | -80.29779 | 18 ft | 19 kts | 267° |
| 2026-05-07 18:47 | 25.79972 | -80.29923 | 16 ft | 18 kts | 272° |
| 2026-05-07 18:48 | 25.79996 | -80.30049 | 17 ft | 14 kts | 287° |
| 2026-05-07 18:48 | 25.80031 | -80.30112 | 19 ft | 7 kts | 330° |
| 2026-05-07 18:48 | 25.80070 | -80.30092 | 18 ft | 7 kts | 67° |
| 2026-05-07 18:48 | 25.80074 | -80.30050 | 17 ft | 0 kts | 86° |
| 2026-05-07 18:49 | 25.80076 | -80.29994 | 16 ft | 30 kts | 87° |
| 2026-05-07 18:49 | 25.80097 | -80.29516 | 19 ft | 100 kts | 86° |
| 2026-05-07 18:49 | 25.80145 | -80.28440 | 156 ft | 168 kts | 91° |
| 2026-05-07 18:50 | 25.80156 | -80.27047 | 912 ft | 195 kts | 93° |
| 2026-05-07 18:50 | 25.80176 | -80.25486 | 1812 ft | 199 kts | 86° |
| 2026-05-07 18:50 | 25.80327 | -80.23896 | 2311 ft | 221 kts | 85° |
| 2026-05-07 18:50 | 25.80503 | -80.22086 | 2537 ft | 250 kts | 86° |
| 2026-05-07 18:51 | 25.80586 | -80.20081 | 3063 ft | 264 kts | 89° |
| 2026-05-07 18:51 | 25.80865 | -80.18049 | 3556 ft | 275 kts | 65° |
| 2026-05-07 18:51 | 25.82100 | -80.16457 | 4310 ft | 276 kts | 30° |
| 2026-05-07 18:51 | 25.83908 | -80.15871 | 5189 ft | 270 kts | 2° |
| 2026-05-07 18:52 | 25.85805 | -80.15825 | 5823 ft | 277 kts | 1° |
| 2026-05-07 18:52 | 25.87749 | -80.15763 | 6558 ft | 281 kts | 2° |
| 2026-05-07 18:52 | 25.89700 | -80.15779 | 7197 ft | 281 kts | 352° |
| 2026-05-07 18:52 | 25.91620 | -80.16337 | 7741 ft | 289 kts | 342° |
| 2026-05-07 18:53 | 25.93527 | -80.17069 | 8478 ft | 290 kts | 341° |
| 2026-05-07 18:53 | 25.95448 | -80.17787 | 9197 ft | 293 kts | 342° |
| 2026-05-07 18:53 | 25.97379 | -80.18482 | 9845 ft | 298 kts | 342° |
| 2026-05-07 18:53 | 25.99389 | -80.19134 | 10331 ft | 308 kts | 348° |
| 2026-05-07 18:54 | 26.01598 | -80.19477 | 10510 ft | 331 kts | 355° |
| 2026-05-07 18:54 | 26.03939 | -80.19670 | 11075 ft | 342 kts | 356° |
| 2026-05-07 18:54 | 26.06336 | -80.19855 | 11836 ft | 348 kts | 356° |
| 2026-05-07 18:54 | 26.08755 | -80.20062 | 12819 ft | 349 kts | 355° |
| 2026-05-07 18:55 | 26.11178 | -80.20289 | 13817 ft | 351 kts | 354° |
| 2026-05-07 18:55 | 26.13617 | -80.20534 | 14688 ft | 354 kts | 354° |
| 2026-05-07 18:55 | 26.16091 | -80.20788 | 15514 ft | 359 kts | 354° |
| 2026-05-07 18:55 | 26.18593 | -80.21047 | 16394 ft | 363 kts | 353° |
| 2026-05-07 18:56 | 26.21126 | -80.21300 | 17305 ft | 367 kts | 354° |
| 2026-05-07 18:56 | 26.23680 | -80.21529 | 18235 ft | 370 kts | 353° |
| 2026-05-07 18:56 | 26.26264 | -80.21754 | 19028 ft | 374 kts | 353° |
| 2026-05-07 18:56 | 26.28875 | -80.21985 | 19779 ft | 379 kts | 353° |
| 2026-05-07 18:57 | 26.31526 | -80.22221 | 20525 ft | 385 kts | 352° |
| 2026-05-07 18:57 | 26.34207 | -80.22461 | 21282 ft | 389 kts | 352° |
| 2026-05-07 18:57 | 26.36919 | -80.22704 | 22078 ft | 393 kts | 352° |
| 2026-05-07 18:57 | 26.39663 | -80.22962 | 22832 ft | 398 kts | 351° |
| 2026-05-07 18:58 | 26.42434 | -80.23247 | 23541 ft | 403 kts | 351° |
| 2026-05-07 18:58 | 26.45244 | -80.23542 | 24167 ft | 408 kts | 351° |
| 2026-05-07 18:58 | 26.48082 | -80.23840 | 24800 ft | 411 kts | 351° |
| 2026-05-07 18:58 | 26.50939 | -80.24136 | 25461 ft | 414 kts | 351° |
| 2026-05-07 18:59 | 26.53826 | -80.24434 | 26119 ft | 418 kts | 351° |
| 2026-05-07 18:59 | 26.56728 | -80.24752 | 26752 ft | 421 kts | 348° |
| 2026-05-07 18:59 | 26.59636 | -80.25210 | 27350 ft | 424 kts | 347° |
| 2026-05-07 18:59 | 26.62562 | -80.25718 | 27943 ft | 427 kts | 347° |
| 2026-05-07 19:00 | 26.65510 | -80.26225 | 28521 ft | 431 kts | 347° |
| 2026-05-07 19:00 | 26.68490 | -80.26733 | 29061 ft | 434 kts | 346° |
| 2026-05-07 19:00 | 26.71443 | -80.27446 | 29596 ft | 435 kts | 340° |
| 2026-05-07 19:00 | 26.74309 | -80.28511 | 30078 ft | 434 kts | 335° |
| 2026-05-07 19:01 | 26.77140 | -80.29722 | 30536 ft | 437 kts | 335° |
| 2026-05-07 19:01 | 26.79982 | -80.30943 | 30982 ft | 439 kts | 335° |
| 2026-05-07 19:01 | 26.82845 | -80.32161 | 31412 ft | 441 kts | 335° |
| 2026-05-07 19:01 | 26.85728 | -80.33378 | 31825 ft | 444 kts | 335° |
| 2026-05-07 19:02 | 26.88589 | -80.34579 | 32219 ft | 446 kts | 335° |
| 2026-05-07 19:02 | 26.91542 | -80.35815 | 32608 ft | 448 kts | 335° |
| 2026-05-07 19:02 | 26.94436 | -80.37026 | 32977 ft | 451 kts | 335° |
| 2026-05-07 19:02 | 26.97395 | -80.38233 | 33321 ft | 454 kts | 336° |
| 2026-05-07 19:03 | 27.00375 | -80.39427 | 33636 ft | 456 kts | 336° |
| 2026-05-07 19:03 | 27.03375 | -80.40626 | 33940 ft | 459 kts | 336° |
| 2026-05-07 19:03 | 27.06387 | -80.41837 | 34211 ft | 461 kts | 336° |
| 2026-05-07 19:03 | 27.09409 | -80.43058 | 34478 ft | 462 kts | 336° |
| 2026-05-07 19:04 | 27.12419 | -80.44336 | 34795 ft | 462 kts | 335° |
| 2026-05-07 19:04 | 27.15399 | -80.45655 | 35206 ft | 460 kts | 334° |
| 2026-05-07 19:04 | 27.18363 | -80.46983 | 35653 ft | 457 kts | 334° |
| 2026-05-07 19:04 | 27.21306 | -80.48301 | 36067 ft | 455 kts | 334° |
| 2026-05-07 19:05 | 27.24247 | -80.49612 | 36450 ft | 454 kts | 334° |
| 2026-05-07 19:05 | 27.27183 | -80.50915 | 36810 ft | 453 kts | 334° |
| 2026-05-07 19:05 | 27.30114 | -80.52214 | 37176 ft | 452 kts | 334° |
| 2026-05-07 19:05 | 27.33036 | -80.53508 | 37546 ft | 451 kts | 334° |
| 2026-05-07 19:06 | 27.35952 | -80.54798 | 37897 ft | 450 kts | 334° |
| 2026-05-07 19:06 | 27.41824 | -80.57247 | 38581 ft | 450 kts | 336° |
| 2026-05-07 19:06 | 27.43779 | -80.58011 | 38798 ft | 449 kts | 337° |
| 2026-05-07 19:07 | 27.47738 | -80.59547 | 38960 ft | 452 kts | 337° |
| 2026-05-07 19:07 | 27.49710 | -80.60314 | 38987 ft | 453 kts | 336° |
| 2026-05-07 19:07 | 27.55677 | -80.62658 | 39318 ft | 453 kts | 336° |
| 2026-05-07 19:08 | 27.58644 | -80.63833 | 39633 ft | 451 kts | 336° |
| 2026-05-07 19:08 | 27.61589 | -80.65003 | 39950 ft | 448 kts | 336° |
| 2026-05-07 19:08 | 27.64526 | -80.66173 | 40226 ft | 447 kts | 336° |
| 2026-05-07 19:08 | 27.67456 | -80.67343 | 40451 ft | 447 kts | 336° |
| 2026-05-07 19:09 | 27.71338 | -80.68894 | 40735 ft | 447 kts | 336° |
| 2026-05-07 19:09 | 27.73313 | -80.69684 | 40892 ft | 446 kts | 336° |
| 2026-05-07 19:09 | 27.79190 | -80.72039 | 41012 ft | 449 kts | 336° |
| 2026-05-07 19:10 | 27.85070 | -80.74404 | 41011 ft | 447 kts | 336° |
| 2026-05-07 19:10 | 27.90911 | -80.76746 | 41017 ft | 444 kts | 336° |
| 2026-05-07 19:11 | 27.96688 | -80.79062 | 41017 ft | 443 kts | 336° |
| 2026-05-07 19:11 | 28.02498 | -80.81395 | 41020 ft | 444 kts | 336° |
| 2026-05-07 19:12 | 28.08321 | -80.83737 | 41038 ft | 445 kts | 335° |
| 2026-05-07 19:12 | 28.14161 | -80.86089 | 41028 ft | 446 kts | 335° |
| 2026-05-07 19:13 | 28.20008 | -80.88445 | 41025 ft | 446 kts | 335° |
| 2026-05-07 19:13 | 28.25864 | -80.90807 | 41020 ft | 447 kts | 335° |
| 2026-05-07 19:14 | 28.31721 | -80.93173 | 41026 ft | 447 kts | 335° |
| 2026-05-07 19:14 | 28.37572 | -80.95539 | 41043 ft | 446 kts | 335° |
| 2026-05-07 19:15 | 28.43416 | -80.97905 | 41031 ft | 446 kts | 335° |
| 2026-05-07 19:15 | 28.49254 | -81.00272 | 41029 ft | 445 kts | 335° |
| 2026-05-07 19:16 | 28.55079 | -81.02636 | 41027 ft | 445 kts | 335° |
| 2026-05-07 19:16 | 28.60906 | -81.05004 | 41014 ft | 444 kts | 335° |
| 2026-05-07 19:17 | 28.66726 | -81.07372 | 41046 ft | 444 kts | 334° |
| 2026-05-07 19:17 | 28.72543 | -81.09741 | 41027 ft | 444 kts | 334° |
| 2026-05-07 19:18 | 28.78317 | -81.12096 | 41016 ft | 443 kts | 334° |
| 2026-05-07 19:18 | 28.84116 | -81.14463 | 41001 ft | 442 kts | 334° |
| 2026-05-07 19:19 | 28.89905 | -81.16829 | 41015 ft | 442 kts | 334° |
| 2026-05-07 19:19 | 28.95693 | -81.19199 | 41017 ft | 442 kts | 334° |
| 2026-05-07 19:20 | 29.01478 | -81.21569 | 41016 ft | 441 kts | 334° |
| 2026-05-07 19:20 | 29.07251 | -81.23936 | 41017 ft | 440 kts | 334° |
| 2026-05-07 19:21 | 29.13006 | -81.26301 | 41018 ft | 439 kts | 334° |
| 2026-05-07 19:21 | 29.18752 | -81.28664 | 41021 ft | 439 kts | 334° |
| 2026-05-07 19:22 | 29.24502 | -81.31003 | 41018 ft | 441 kts | 336° |
| 2026-05-07 19:22 | 29.30563 | -81.32486 | 41012 ft | 451 kts | 345° |
| 2026-05-07 19:23 | 29.36866 | -81.32952 | 41033 ft | 455 kts | 349° |
| 2026-05-07 19:23 | 29.43193 | -81.33267 | 41031 ft | 455 kts | 349° |
| 2026-05-07 19:24 | 29.49514 | -81.33605 | 41035 ft | 454 kts | 349° |
| 2026-05-07 19:24 | 29.55786 | -81.33968 | 41030 ft | 454 kts | 349° |
| 2026-05-07 19:25 | 29.62102 | -81.34343 | 41015 ft | 455 kts | 349° |
| 2026-05-07 19:25 | 29.68429 | -81.34719 | 41015 ft | 455 kts | 349° |
| 2026-05-07 19:26 | 29.74752 | -81.35094 | 41017 ft | 455 kts | 349° |
| 2026-05-07 19:26 | 29.81083 | -81.35469 | 41016 ft | 455 kts | 349° |
| 2026-05-07 19:27 | 29.87415 | -81.35845 | 41025 ft | 456 kts | 348° |
| 2026-05-07 19:27 | 29.93754 | -81.36222 | 41018 ft | 456 kts | 348° |
| 2026-05-07 19:28 | 30.00095 | -81.36599 | 41019 ft | 456 kts | 348° |
| 2026-05-07 19:28 | 30.06431 | -81.36976 | 41018 ft | 456 kts | 348° |
| 2026-05-07 19:29 | 30.12768 | -81.37354 | 41055 ft | 456 kts | 348° |
| 2026-05-07 19:29 | 30.19072 | -81.37732 | 41023 ft | 457 kts | 348° |
| 2026-05-07 19:30 | 30.25417 | -81.38111 | 41017 ft | 456 kts | 348° |
| 2026-05-07 19:30 | 30.31758 | -81.38491 | 41018 ft | 456 kts | 348° |
| 2026-05-07 19:31 | 30.38093 | -81.38871 | 41019 ft | 456 kts | 348° |
| 2026-05-07 19:31 | 30.44431 | -81.39252 | 41018 ft | 456 kts | 348° |
| 2026-05-07 19:32 | 30.50772 | -81.39611 | 40994 ft | 456 kts | 349° |
| 2026-05-07 19:32 | 30.57115 | -81.39940 | 40990 ft | 456 kts | 349° |
| 2026-05-07 19:33 | 30.63461 | -81.40269 | 40991 ft | 456 kts | 349° |
| 2026-05-07 19:33 | 30.69807 | -81.40604 | 41008 ft | 457 kts | 348° |
| 2026-05-07 19:34 | 30.76156 | -81.40941 | 40979 ft | 456 kts | 348° |
| 2026-05-07 19:34 | 30.82486 | -81.41277 | 40993 ft | 455 kts | 348° |
| 2026-05-07 19:35 | 30.88764 | -81.41611 | 40998 ft | 454 kts | 348° |
| 2026-05-07 19:35 | 30.95083 | -81.41948 | 40948 ft | 454 kts | 348° |
| 2026-05-07 19:36 | 31.01392 | -81.42285 | 40941 ft | 454 kts | 348° |
| 2026-05-07 19:36 | 31.07702 | -81.42622 | 40919 ft | 454 kts | 348° |
| 2026-05-07 19:37 | 31.14007 | -81.42959 | 40919 ft | 453 kts | 348° |
| 2026-05-07 19:37 | 31.20304 | -81.43292 | 40922 ft | 454 kts | 349° |
| 2026-05-07 19:38 | 31.26707 | -81.42661 | 40958 ft | 471 kts | 1° |
| 2026-05-07 19:38 | 31.33068 | -81.40548 | 40945 ft | 483 kts | 9° |
| 2026-05-07 19:39 | 31.39408 | -81.37899 | 40951 ft | 484 kts | 10° |
| 2026-05-07 19:39 | 31.45746 | -81.35238 | 40943 ft | 484 kts | 10° |
| 2026-05-07 19:40 | 31.52098 | -81.32619 | 40975 ft | 484 kts | 9° |
| 2026-05-07 19:40 | 31.58469 | -81.30017 | 40945 ft | 485 kts | 9° |
| 2026-05-07 19:41 | 31.64856 | -81.27408 | 40929 ft | 486 kts | 9° |
| 2026-05-07 19:41 | 31.71246 | -81.24790 | 40920 ft | 486 kts | 9° |
| 2026-05-07 19:42 | 31.77634 | -81.22168 | 40928 ft | 486 kts | 9° |
| 2026-05-07 19:42 | 31.84031 | -81.19538 | 40909 ft | 487 kts | 9° |
| 2026-05-07 19:43 | 31.90432 | -81.16902 | 40900 ft | 488 kts | 9° |
| 2026-05-07 19:43 | 31.96832 | -81.14247 | 40900 ft | 488 kts | 9° |
| 2026-05-07 19:44 | 32.03240 | -81.11597 | 40899 ft | 488 kts | 9° |
| 2026-05-07 19:44 | 32.09661 | -81.08945 | 40901 ft | 490 kts | 9° |
| 2026-05-07 19:45 | 32.16098 | -81.06285 | 40932 ft | 491 kts | 9° |
| 2026-05-07 19:45 | 32.22543 | -81.03617 | 40930 ft | 491 kts | 9° |
| 2026-05-07 19:46 | 32.28999 | -81.00935 | 40730 ft | 493 kts | 9° |
| 2026-05-07 19:46 | 32.32243 | -80.99587 | 40297 ft | 495 kts | 8° |
| 2026-05-07 19:46 | 32.35479 | -80.98237 | 39884 ft | 492 kts | 8° |
| 2026-05-07 19:47 | 32.38694 | -80.96894 | 39480 ft | 487 kts | 8° |
| 2026-05-07 19:47 | 32.41881 | -80.95567 | 39073 ft | 483 kts | 8° |
| 2026-05-07 19:47 | 32.45009 | -80.94267 | 38691 ft | 487 kts | 8° |
| 2026-05-07 19:47 | 32.48305 | -80.92910 | 38282 ft | 503 kts | 9° |
| 2026-05-07 19:48 | 32.51610 | -80.91545 | 37865 ft | 516 kts | 9° |
| 2026-05-07 19:48 | 32.54996 | -80.90128 | 37423 ft | 516 kts | 10° |
| 2026-05-07 19:48 | 32.58369 | -80.88702 | 37013 ft | 513 kts | 10° |
| 2026-05-07 19:48 | 32.61726 | -80.87284 | 36580 ft | 511 kts | 10° |
| 2026-05-07 19:49 | 32.65071 | -80.85879 | 36158 ft | 509 kts | 10° |
| 2026-05-07 19:49 | 32.68402 | -80.84483 | 35746 ft | 507 kts | 11° |
| 2026-05-07 19:49 | 32.71713 | -80.83009 | 35333 ft | 510 kts | 14° |
| 2026-05-07 19:49 | 32.74929 | -80.81186 | 35000 ft | 515 kts | 21° |
| 2026-05-07 19:50 | 32.78110 | -80.79116 | 34921 ft | 526 kts | 22° |
| 2026-05-07 19:50 | 32.81339 | -80.76984 | 34705 ft | 538 kts | 22° |
| 2026-05-07 19:50 | 32.84624 | -80.74809 | 34416 ft | 543 kts | 22° |
| 2026-05-07 19:50 | 32.87934 | -80.72625 | 34134 ft | 545 kts | 21° |
| 2026-05-07 19:51 | 32.91253 | -80.70448 | 33818 ft | 543 kts | 22° |
| 2026-05-07 19:51 | 32.94551 | -80.68291 | 33481 ft | 540 kts | 21° |
| 2026-05-07 19:51 | 32.97842 | -80.66142 | 33143 ft | 538 kts | 21° |
| 2026-05-07 19:51 | 33.01115 | -80.64007 | 32822 ft | 535 kts | 21° |
| 2026-05-07 19:52 | 33.04370 | -80.61884 | 32440 ft | 532 kts | 21° |
| 2026-05-07 19:52 | 33.07602 | -80.59770 | 32121 ft | 528 kts | 21° |
| 2026-05-07 19:52 | 33.10815 | -80.57667 | 31789 ft | 525 kts | 21° |
| 2026-05-07 19:52 | 33.14007 | -80.55580 | 31494 ft | 522 kts | 21° |
| 2026-05-07 19:53 | 33.17138 | -80.53533 | 31183 ft | 519 kts | 21° |
| 2026-05-07 19:53 | 33.20295 | -80.51467 | 30875 ft | 515 kts | 21° |
| 2026-05-07 19:53 | 33.23425 | -80.49415 | 30579 ft | 511 kts | 21° |
| 2026-05-07 19:53 | 33.26532 | -80.47376 | 30268 ft | 508 kts | 21° |
| 2026-05-07 19:54 | 33.29614 | -80.45350 | 29967 ft | 504 kts | 21° |
| 2026-05-07 19:54 | 33.32679 | -80.43335 | 29645 ft | 501 kts | 20° |
| 2026-05-07 19:54 | 33.35722 | -80.41333 | 29283 ft | 498 kts | 20° |
| 2026-05-07 19:54 | 33.38755 | -80.39337 | 28934 ft | 496 kts | 20° |
| 2026-05-07 19:55 | 33.41771 | -80.37350 | 28597 ft | 494 kts | 20° |
| 2026-05-07 19:55 | 33.44774 | -80.35370 | 28256 ft | 492 kts | 20° |
| 2026-05-07 19:55 | 33.47764 | -80.33397 | 27919 ft | 489 kts | 20° |
| 2026-05-07 19:55 | 33.50739 | -80.31431 | 27589 ft | 487 kts | 20° |
| 2026-05-07 19:56 | 33.53698 | -80.29475 | 27273 ft | 485 kts | 20° |
| 2026-05-07 19:56 | 33.56643 | -80.27527 | 26952 ft | 483 kts | 20° |
| 2026-05-07 19:56 | 33.59576 | -80.25585 | 26671 ft | 481 kts | 19° |
| 2026-05-07 19:56 | 33.62500 | -80.23645 | 26351 ft | 479 kts | 20° |
| 2026-05-07 19:57 | 33.65406 | -80.21715 | 26044 ft | 477 kts | 20° |
| 2026-05-07 19:57 | 33.68296 | -80.19791 | 25905 ft | 472 kts | 20° |
| 2026-05-07 19:57 | 33.71148 | -80.17891 | 25717 ft | 465 kts | 19° |
| 2026-05-07 19:57 | 33.73961 | -80.16016 | 25386 ft | 459 kts | 19° |
| 2026-05-07 19:58 | 33.76729 | -80.14169 | 25057 ft | 452 kts | 19° |
| 2026-05-07 19:58 | 33.79465 | -80.12345 | 24734 ft | 447 kts | 19° |
| 2026-05-07 19:58 | 33.82138 | -80.10565 | 24453 ft | 444 kts | 19° |
| 2026-05-07 19:58 | 33.84871 | -80.08741 | 24117 ft | 443 kts | 19° |
| 2026-05-07 19:59 | 33.87528 | -80.06969 | 23786 ft | 443 kts | 19° |
| 2026-05-07 19:59 | 33.90217 | -80.05175 | 23459 ft | 442 kts | 19° |
| 2026-05-07 19:59 | 33.92905 | -80.03378 | 23070 ft | 441 kts | 19° |
| 2026-05-07 19:59 | 33.95587 | -80.01583 | 22649 ft | 440 kts | 19° |
| 2026-05-07 20:00 | 33.98307 | -80.00167 | 22209 ft | 413 kts | 2° |
| 2026-05-07 20:00 | 34.01069 | -79.99903 | 21811 ft | 388 kts | 344° |
| 2026-05-07 20:00 | 34.03671 | -80.00418 | 21438 ft | 372 kts | 333° |
| 2026-05-07 20:00 | 34.06020 | -80.01516 | 21059 ft | 356 kts | 323° |
| 2026-05-07 20:01 | 34.08234 | -80.02831 | 20722 ft | 354 kts | 322° |
| 2026-05-07 20:01 | 34.10432 | -80.04163 | 20375 ft | 354 kts | 322° |
| 2026-05-07 20:01 | 34.12628 | -80.05493 | 20051 ft | 352 kts | 322° |
| 2026-05-07 20:01 | 34.14817 | -80.06809 | 19760 ft | 350 kts | 323° |
| 2026-05-07 20:02 | 34.16261 | -80.07671 | 19565 ft | 349 kts | 323° |
| 2026-05-07 20:02 | 34.18433 | -80.08962 | 19287 ft | 347 kts | 323° |
| 2026-05-07 20:02 | 34.20595 | -80.10241 | 19021 ft | 345 kts | 323° |
| 2026-05-07 20:02 | 34.22743 | -80.11511 | 18738 ft | 343 kts | 323° |
| 2026-05-07 20:03 | 34.24876 | -80.12773 | 18468 ft | 341 kts | 323° |
| 2026-05-07 20:03 | 34.27001 | -80.14032 | 18211 ft | 339 kts | 323° |
| 2026-05-07 20:03 | 34.29118 | -80.15287 | 17910 ft | 338 kts | 323° |
| 2026-05-07 20:03 | 34.31225 | -80.16536 | 17619 ft | 336 kts | 323° |
| 2026-05-07 20:04 | 34.33316 | -80.17777 | 17367 ft | 333 kts | 323° |
| 2026-05-07 20:04 | 34.35392 | -80.19008 | 17099 ft | 331 kts | 323° |
| 2026-05-07 20:04 | 34.37454 | -80.20233 | 16766 ft | 329 kts | 323° |
| 2026-05-07 20:04 | 34.39504 | -80.21448 | 16437 ft | 326 kts | 323° |
| 2026-05-07 20:05 | 34.41523 | -80.22644 | 16111 ft | 320 kts | 323° |
| 2026-05-07 20:05 | 34.43499 | -80.23815 | 15778 ft | 313 kts | 323° |
| 2026-05-07 20:05 | 34.45442 | -80.24970 | 15454 ft | 309 kts | 323° |
| 2026-05-07 20:05 | 34.47367 | -80.26120 | 15145 ft | 309 kts | 323° |
| 2026-05-07 20:06 | 34.49292 | -80.27271 | 14836 ft | 309 kts | 324° |
| 2026-05-07 20:06 | 34.51222 | -80.28424 | 14530 ft | 309 kts | 324° |
| 2026-05-07 20:06 | 34.53154 | -80.29577 | 14234 ft | 310 kts | 324° |
| 2026-05-07 20:06 | 34.55086 | -80.30728 | 13926 ft | 309 kts | 325° |
| 2026-05-07 20:07 | 34.57016 | -80.31879 | 13637 ft | 309 kts | 325° |
| 2026-05-07 20:07 | 34.58946 | -80.33030 | 13297 ft | 309 kts | 325° |
| 2026-05-07 20:07 | 34.60846 | -80.34223 | 12968 ft | 302 kts | 320° |
| 2026-05-07 20:07 | 34.62515 | -80.35724 | 12658 ft | 297 kts | 313° |
| 2026-05-07 20:08 | 34.64096 | -80.37332 | 12326 ft | 297 kts | 313° |
| 2026-05-07 20:08 | 34.65674 | -80.38912 | 11999 ft | 298 kts | 314° |
| 2026-05-07 20:08 | 34.67288 | -80.40492 | 11696 ft | 298 kts | 314° |
| 2026-05-07 20:08 | 34.68909 | -80.42063 | 11377 ft | 298 kts | 314° |
| 2026-05-07 20:09 | 34.70526 | -80.43644 | 11090 ft | 297 kts | 314° |
| 2026-05-07 20:09 | 34.72110 | -80.45197 | 11029 ft | 289 kts | 314° |
| 2026-05-07 20:09 | 34.73642 | -80.46698 | 10822 ft | 276 kts | 314° |
| 2026-05-07 20:10 | 34.76505 | -80.49508 | 10176 ft | 256 kts | 314° |
| 2026-05-07 20:10 | 34.77877 | -80.50859 | 9872 ft | 251 kts | 314° |
| 2026-05-07 20:10 | 34.79241 | -80.52203 | 9561 ft | 254 kts | 314° |
| 2026-05-07 20:10 | 34.80616 | -80.53558 | 9242 ft | 255 kts | 314° |
| 2026-05-07 20:11 | 34.82020 | -80.54945 | 8934 ft | 263 kts | 314° |
| 2026-05-07 20:11 | 34.83432 | -80.56338 | 8604 ft | 257 kts | 314° |
| 2026-05-07 20:11 | 34.84786 | -80.57670 | 8247 ft | 245 kts | 314° |
| 2026-05-07 20:11 | 34.86102 | -80.58971 | 7924 ft | 243 kts | 314° |
| 2026-05-07 20:12 | 34.87417 | -80.60274 | 7610 ft | 244 kts | 313° |
| 2026-05-07 20:12 | 34.88478 | -80.61815 | 7275 ft | 234 kts | 290° |
| 2026-05-07 20:12 | 34.88851 | -80.63716 | 7004 ft | 231 kts | 274° |
| 2026-05-07 20:12 | 34.88725 | -80.65670 | 6681 ft | 233 kts | 260° |
| 2026-05-07 20:13 | 34.88378 | -80.67560 | 6375 ft | 223 kts | 259° |
| 2026-05-07 20:13 | 34.88034 | -80.69345 | 6107 ft | 209 kts | 259° |
| 2026-05-07 20:13 | 34.87713 | -80.71028 | 6042 ft | 205 kts | 261° |
| 2026-05-07 20:13 | 34.87759 | -80.72725 | 6002 ft | 202 kts | 285° |
| 2026-05-07 20:14 | 34.88228 | -80.74349 | 6011 ft | 204 kts | 286° |
| 2026-05-07 20:14 | 34.88667 | -80.75995 | 6012 ft | 204 kts | 285° |
| 2026-05-07 20:14 | 34.89102 | -80.77641 | 6004 ft | 204 kts | 285° |
| 2026-05-07 20:14 | 34.89540 | -80.79282 | 6003 ft | 204 kts | 286° |
| 2026-05-07 20:15 | 34.89988 | -80.80954 | 6024 ft | 211 kts | 287° |
| 2026-05-07 20:15 | 34.90448 | -80.82666 | 6002 ft | 212 kts | 287° |
| 2026-05-07 20:15 | 34.90907 | -80.84362 | 5996 ft | 209 kts | 288° |
| 2026-05-07 20:15 | 34.91362 | -80.86039 | 5986 ft | 208 kts | 287° |
| 2026-05-07 20:16 | 34.91814 | -80.87713 | 5960 ft | 210 kts | 287° |
| 2026-05-07 20:16 | 34.92334 | -80.89378 | 5815 ft | 211 kts | 299° |
| 2026-05-07 20:16 | 34.93439 | -80.90571 | 5619 ft | 219 kts | 334° |
| 2026-05-07 20:16 | 34.94893 | -80.91001 | 5448 ft | 212 kts | 344° |
| 2026-05-07 20:17 | 34.96348 | -80.91295 | 5247 ft | 212 kts | 347° |
| 2026-05-07 20:17 | 34.97812 | -80.91481 | 4989 ft | 211 kts | 350° |
| 2026-05-07 20:17 | 34.99265 | -80.91618 | 4783 ft | 207 kts | 351° |
| 2026-05-07 20:17 | 35.00698 | -80.91743 | 4478 ft | 207 kts | 352° |
| 2026-05-07 20:18 | 35.02113 | -80.91863 | 4200 ft | 206 kts | 351° |
| 2026-05-07 20:18 | 35.03539 | -80.91985 | 3932 ft | 206 kts | 351° |
| 2026-05-07 20:18 | 35.04966 | -80.92107 | 3656 ft | 205 kts | 352° |
| 2026-05-07 20:18 | 35.06383 | -80.92229 | 3392 ft | 203 kts | 351° |
| 2026-05-07 20:19 | 35.07771 | -80.92347 | 3114 ft | 194 kts | 351° |
| 2026-05-07 20:19 | 35.09083 | -80.92460 | 2861 ft | 179 kts | 351° |
| 2026-05-07 20:19 | 35.10257 | -80.92561 | 2650 ft | 163 kts | 351° |
| 2026-05-07 20:19 | 35.11343 | -80.92653 | 2442 ft | 149 kts | 352° |
| 2026-05-07 20:20 | 35.12344 | -80.92742 | 2278 ft | 142 kts | 351° |
| 2026-05-07 20:20 | 35.13339 | -80.92830 | 2074 ft | 143 kts | 351° |
| 2026-05-07 20:20 | 35.14318 | -80.92914 | 1876 ft | 141 kts | 351° |
| 2026-05-07 20:20 | 35.15312 | -80.93001 | 1710 ft | 145 kts | 351° |
| 2026-05-07 20:21 | 35.16312 | -80.93096 | 1502 ft | 138 kts | 351° |
| 2026-05-07 20:21 | 35.17256 | -80.93208 | 1354 ft | 140 kts | 355° |
| 2026-05-07 20:21 | 35.18250 | -80.93263 | 1162 ft | 142 kts | 355° |
| 2026-05-07 20:21 | 35.19224 | -80.93343 | 951 ft | 142 kts | 354° |
| 2026-05-07 20:22 | 35.20207 | -80.93426 | 774 ft | 143 kts | 355° |
| 2026-05-07 20:22 | 35.21148 | -80.93506 | 739 ft | 120 kts | 357° |
| 2026-05-07 20:22 | 35.21796 | -80.93561 | 740 ft | 67 kts | 356° |
| 2026-05-07 20:22 | 35.22021 | -80.93594 | 737 ft | 17 kts | 337° |
| 2026-05-07 20:23 | 35.22105 | -80.93657 | 739 ft | 14 kts | 326° |
| 2026-05-07 20:23 | 35.22172 | -80.93714 | 738 ft | 10 kts | 317° |
| 2026-05-07 20:23 | 35.22190 | -80.93765 | 737 ft | 6 kts | 279° |
| 2026-05-07 20:23 | 35.22179 | -80.93807 | 737 ft | 6 kts | 227° |
| 2026-05-07 20:24 | 35.22151 | -80.93818 | 737 ft | 3 kts | 181° |
| 2026-05-07 20:24 | 35.22128 | -80.93813 | 737 ft | 7 kts | 166° |
| 2026-05-07 20:24 | 35.22073 | -80.93800 | 737 ft | 8 kts | 172° |
| 2026-05-07 20:24 | 35.22026 | -80.93798 | 737 ft | 6 kts | 187° |
| 2026-05-07 20:25 | 35.21988 | -80.93824 | 737 ft | 6 kts | 221° |
| 2026-05-07 20:25 | 35.21979 | -80.93834 | 736 ft | 3 kts | 224° |
| 2026-05-07 20:25 | 35.21943 | -80.93882 | 736 ft | 8 kts | 231° |
| 2026-05-07 20:25 | 35.21917 | -80.93931 | 737 ft | 6 kts | 248° |
| 2026-05-07 20:26 | 35.21907 | -80.93979 | 737 ft | 6 kts | 256° |
| 2026-05-07 20:26 | 35.21904 | -80.93995 | 737 ft | 0 kts | 256° |
| 2026-05-07 20:26 | 35.21903 | -80.93997 | 737 ft | 2 kts | 256° |
| 2026-05-07 20:27 | 35.21889 | -80.94054 | 737 ft | 11 kts | 253° |
| 2026-05-07 20:27 | 35.21867 | -80.94146 | 737 ft | 8 kts | 253° |
| 2026-05-07 20:27 | 35.21861 | -80.94170 | 735 ft | 0 kts | 252° |